»·PEaware :: N265K KSNA-KCRQ

N265K :: KSNA-KCRQ

FLIGHT INFORMATION

Flight Status: Arrived
Operator: Privately registered:
United States
More flights under this callsign
Pilot: Tytus A. (10113)
Aircraft: CESSNA 210 CENTURION
(C210)
More flights by this aircraft type
Origin: KSNA John Wayne-Orange Co
United States
Destination: KCRQ McClellan-Palomar
United States
More flights between these airports :: More routes between these airports
Route: V23 OCN
File this flight plan on PilotEdge
Remarks: I'll accept a hold if you can work it in
Altitude:
(Current/Filed)
5,000ft
Speed:
(Current/Filed)
160kts
Departed: 16-May-20 08:49 PM
Arrived: 16-May-20 09:27 PM
Distance/Time
Traveled:
44nm/0:38
Distance/Time
To Go:
Arrived

Flight Plot

Page will automatically refresh every two minutes.


Map Options




Map Legend


Flown Route
Filed Route
Departure Airport
Arrival Airport
Navaid (VOR, NDB)
Fix

Horizontal Profiles

Position Reports

Time Latitude Longitude Heading Altitude Ground
Speed
16-May-20 20:27 33.666435 -117.873047 219 59ft 0kts
16-May-20 20:28 33.666435 -117.873047 219 59ft 0kts
16-May-20 20:29 33.666435 -117.873047 219 59ft 0kts
16-May-20 20:30 33.666435 -117.873047 219 59ft 0kts
16-May-20 20:31 33.666434 -117.873048 219 59ft 0kts
16-May-20 20:32 33.666433 -117.873048 219 59ft 0kts
16-May-20 20:33 33.666433 -117.873049 219 59ft 0kts
16-May-20 20:34 33.666432 -117.873050 219 59ft 0kts
16-May-20 20:35 33.666431 -117.873051 219 59ft 0kts
16-May-20 20:36 33.666430 -117.873052 220 59ft 0kts
16-May-20 20:37 33.666430 -117.873052 220 59ft 0kts
16-May-20 20:38 33.666429 -117.873053 220 59ft 0kts
16-May-20 20:39 33.666428 -117.873054 220 59ft 0kts
16-May-20 20:40 33.666427 -117.873055 220 59ft 0kts
16-May-20 20:41 33.666426 -117.873056 220 59ft 0kts
16-May-20 20:42 33.667246 -117.872862 32 59ft 15kts
16-May-20 20:43 33.670510 -117.869878 39 59ft 15kts
16-May-20 20:44 33.673219 -117.866884 30 59ft 9kts
16-May-20 20:45 33.675570 -117.866190 29 59ft 15kts
16-May-20 20:46 33.678556 -117.864353 27 59ft 16kts
16-May-20 20:47 33.679658 -117.863777 323 59ft 0kts
16-May-20 20:48 33.669638 -117.870785 206 305ft 97kts
16-May-20 20:49 33.638641 -117.878292 185 1476ft 124kts
16-May-20 20:50 33.601213 -117.881180 187 2289ft 138kts
16-May-20 20:51 33.565960 -117.868790 143 3007ft 139kts
16-May-20 20:53 33.546134 -117.828993 117 3737ft 141kts
16-May-20 20:54 33.527341 -117.787223 116 4438ft 143kts
16-May-20 20:55 33.508602 -117.745473 116 5116ft 145kts
16-May-20 20:56 33.487740 -117.698656 116 5247ft 168kts
16-May-20 20:57 33.451911 -117.662114 139 5241ft 173kts
16-May-20 20:58 33.416899 -117.622290 135 5239ft 173kts
16-May-20 20:59 33.382407 -117.581787 135 5224ft 171kts
16-May-20 21:00 33.348598 -117.542183 135 5220ft 169kts
16-May-20 21:01 33.316682 -117.504834 135 5192ft 139kts
16-May-20 21:02 33.291445 -117.474589 129 5220ft 124kts
16-May-20 21:03 33.270432 -117.441934 131 5224ft 124kts
16-May-20 21:04 33.246879 -117.410374 131 5228ft 131kts
16-May-20 21:05 33.234871 -117.371332 87 5229ft 132kts
16-May-20 21:06 33.222263 -117.336393 196 5223ft 128kts
16-May-20 21:07 33.220776 -117.369780 295 5227ft 114kts
16-May-20 21:08 33.234966 -117.403688 298 5221ft 114kts
16-May-20 21:09 33.234862 -117.435996 203 5265ft 125kts
16-May-20 21:10 33.221809 -117.402146 87 5256ft 141kts
16-May-20 21:10 33.221420 -117.361483 87 5243ft 149kts
16-May-20 21:12 33.221048 -117.303203 87 5241ft 151kts
16-May-20 21:13 33.220838 -117.252893 87 5240ft 151kts
16-May-20 21:13 33.220743 -117.211199 87 5241ft 151kts
16-May-20 21:14 33.220716 -117.160891 87 5247ft 150kts
16-May-20 21:16 33.220811 -117.102533 86 5247ft 151kts
16-May-20 21:16 33.220989 -117.060726 86 5245ft 151kts
16-May-20 21:17 33.206032 -117.018895 163 5044ft 157kts
16-May-20 21:18 33.169907 -117.035455 237 4437ft 150kts
16-May-20 21:19 33.155488 -117.077911 260 3635ft 124kts
16-May-20 21:20 33.149925 -117.113410 265 3092ft 100kts
16-May-20 21:21 33.147275 -117.145929 266 2492ft 97kts
16-May-20 21:22 33.144870 -117.178018 256 1930ft 96kts
16-May-20 21:23 33.139104 -117.210452 256 1452ft 103kts
16-May-20 21:24 33.133685 -117.242819 258 947ft 92kts
16-May-20 21:25 33.129549 -117.271981 259 372ft 86kts
16-May-20 21:26 33.127496 -117.282523 201 334ft 0kts

Navigation Log

Ident Type
Flight plan parsing failed, navigation log unavailable